sensor_id;sensor_type;location;lat;lon;timestamp;P1;durP1;ratioP1;P2;durP2;ratioP2
51184;SDS011;37248;59.350;18.050;2023-01-01T00:00:41;4.63;;;2.47;;
51184;SDS011;37248;59.350;18.050;2023-01-01T00:03:07;5.93;;;2.80;;
51184;SDS011;37248;59.350;18.050;2023-01-01T00:05:32;5.17;;;2.70;;
51184;SDS011;37248;59.350;18.050;2023-01-01T00:07:57;5.10;;;2.67;;
51184;SDS011;37248;59.350;18.050;2023-01-01T00:10:23;4.37;;;2.40;;
51184;SDS011;37248;59.350;18.050;2023-01-01T00:12:54;4.57;;;2.60;;
51184;SDS011;37248;59.350;18.050;2023-01-01T00:15:20;5.45;;;2.40;;
51184;SDS011;37248;59.350;18.050;2023-01-01T00:17:46;4.63;;;2.73;;
51184;SDS011;37248;59.350;18.050;2023-01-01T00:20:11;5.53;;;2.50;;
51184;SDS011;37248;59.350;18.050;2023-01-01T00:22:37;4.77;;;2.70;;
51184;SDS011;37248;59.350;18.050;2023-01-01T00:25:02;4.60;;;2.63;;
51184;SDS011;37248;59.350;18.050;2023-01-01T00:27:27;4.53;;;2.40;;
51184;SDS011;37248;59.350;18.050;2023-01-01T00:29:53;4.63;;;2.50;;
51184;SDS011;37248;59.350;18.050;2023-01-01T00:32:18;5.20;;;2.50;;
51184;SDS011;37248;59.350;18.050;2023-01-01T00:34:43;4.40;;;2.63;;
51184;SDS011;37248;59.350;18.050;2023-01-01T00:37:09;5.47;;;2.57;;
51184;SDS011;37248;59.350;18.050;2023-01-01T00:39:35;5.80;;;2.53;;
51184;SDS011;37248;59.350;18.050;2023-01-01T00:42:00;4.57;;;2.67;;
51184;SDS011;37248;59.350;18.050;2023-01-01T00:44:26;5.47;;;2.63;;
51184;SDS011;37248;59.350;18.050;2023-01-01T00:46:51;3.50;;;2.30;;
51184;SDS011;37248;59.350;18.050;2023-01-01T00:49:16;5.87;;;2.70;;
51184;SDS011;37248;59.350;18.050;2023-01-01T00:51:41;4.37;;;2.50;;
51184;SDS011;37248;59.350;18.050;2023-01-01T00:54:07;4.80;;;2.13;;
51184;SDS011;37248;59.350;18.050;2023-01-01T00:56:32;4.33;;;2.40;;
51184;SDS011;37248;59.350;18.050;2023-01-01T00:58:57;3.67;;;2.40;;
51184;SDS011;37248;59.350;18.050;2023-01-01T01:01:22;4.03;;;2.20;;
51184;SDS011;37248;59.350;18.050;2023-01-01T01:03:48;4.33;;;2.43;;
51184;SDS011;37248;59.350;18.050;2023-01-01T01:06:14;3.80;;;2.30;;
51184;SDS011;37248;59.350;18.050;2023-01-01T01:08:40;4.60;;;2.35;;
51184;SDS011;37248;59.350;18.050;2023-01-01T01:13:34;3.92;;;2.28;;
51184;SDS011;37248;59.350;18.050;2023-01-01T01:15:59;5.00;;;2.30;;
51184;SDS011;37248;59.350;18.050;2023-01-01T01:18:25;4.65;;;2.15;;
51184;SDS011;37248;59.350;18.050;2023-01-01T01:20:51;3.67;;;2.17;;
51184;SDS011;37248;59.350;18.050;2023-01-01T01:23:17;3.72;;;2.03;;
51184;SDS011;37248;59.350;18.050;2023-01-01T01:25:42;4.32;;;2.03;;
51184;SDS011;37248;59.350;18.050;2023-01-01T01:28:07;3.97;;;2.03;;
51184;SDS011;37248;59.350;18.050;2023-01-01T01:30:33;3.58;;;2.15;;
51184;SDS011;37248;59.350;18.050;2023-01-01T01:32:58;3.10;;;1.97;;
51184;SDS011;37248;59.350;18.050;2023-01-01T01:35:23;4.43;;;2.17;;
51184;SDS011;37248;59.350;18.050;2023-01-01T01:37:48;3.70;;;1.90;;
51184;SDS011;37248;59.350;18.050;2023-01-01T01:40:14;4.10;;;1.80;;
51184;SDS011;37248;59.350;18.050;2023-01-01T01:42:44;3.45;;;1.88;;
51184;SDS011;37248;59.350;18.050;2023-01-01T01:45:09;3.63;;;1.90;;
51184;SDS011;37248;59.350;18.050;2023-01-01T01:50:02;3.40;;;2.00;;
51184;SDS011;37248;59.350;18.050;2023-01-01T01:52:28;3.22;;;1.83;;
51184;SDS011;37248;59.350;18.050;2023-01-01T01:54:54;3.05;;;1.77;;
51184;SDS011;37248;59.350;18.050;2023-01-01T01:57:19;2.67;;;1.77;;
51184;SDS011;37248;59.350;18.050;2023-01-01T01:59:46;4.03;;;1.90;;
51184;SDS011;37248;59.350;18.050;2023-01-01T02:02:17;3.53;;;1.90;;
51184;SDS011;37248;59.350;18.050;2023-01-01T02:04:46;3.38;;;1.80;;
51184;SDS011;37248;59.350;18.050;2023-01-01T02:07:11;3.83;;;1.97;;
51184;SDS011;37248;59.350;18.050;2023-01-01T02:09:38;3.97;;;1.85;;
51184;SDS011;37248;59.350;18.050;2023-01-01T02:12:03;3.00;;;1.80;;
51184;SDS011;37248;59.350;18.050;2023-01-01T02:14:28;3.23;;;1.70;;
51184;SDS011;37248;59.350;18.050;2023-01-01T02:16:57;4.27;;;1.87;;
51184;SDS011;37248;59.350;18.050;2023-01-01T02:19:42;2.78;;;1.58;;
51184;SDS011;37248;59.350;18.050;2023-01-01T02:22:17;3.75;;;1.83;;
51184;SDS011;37248;59.350;18.050;2023-01-01T02:24:59;3.03;;;1.75;;
51184;SDS011;37248;59.350;18.050;2023-01-01T02:27:34;3.55;;;1.73;;
51184;SDS011;37248;59.350;18.050;2023-01-01T02:30:05;3.60;;;1.88;;
51184;SDS011;37248;59.350;18.050;2023-01-01T02:32:34;3.00;;;1.70;;
51184;SDS011;37248;59.350;18.050;2023-01-01T02:35:00;3.60;;;1.83;;
51184;SDS011;37248;59.350;18.050;2023-01-01T02:37:47;3.35;;;1.60;;
51184;SDS011;37248;59.350;18.050;2023-01-01T02:40:13;2.42;;;1.38;;
51184;SDS011;37248;59.350;18.050;2023-01-01T02:42:39;3.70;;;1.63;;
51184;SDS011;37248;59.350;18.050;2023-01-01T02:45:04;3.22;;;1.77;;
51184;SDS011;37248;59.350;18.050;2023-01-01T02:47:31;2.35;;;1.38;;
51184;SDS011;37248;59.350;18.050;2023-01-01T02:50:39;4.67;;;1.87;;
51184;SDS011;37248;59.350;18.050;2023-01-01T02:57:42;3.17;;;1.48;;
51184;SDS011;37248;59.350;18.050;2023-01-01T03:00:13;3.63;;;1.40;;
51184;SDS011;37248;59.350;18.050;2023-01-01T03:08:39;2.60;;;1.48;;
51184;SDS011;37248;59.350;18.050;2023-01-01T03:11:10;2.63;;;1.42;;
51184;SDS011;37248;59.350;18.050;2023-01-01T03:21:04;3.20;;;1.50;;
51184;SDS011;37248;59.350;18.050;2023-01-01T03:23:34;2.58;;;1.50;;
51184;SDS011;37248;59.350;18.050;2023-01-01T03:26:01;2.78;;;1.20;;
51184;SDS011;37248;59.350;18.050;2023-01-01T03:28:29;2.67;;;1.40;;
51184;SDS011;37248;59.350;18.050;2023-01-01T03:30:56;3.60;;;1.40;;
51184;SDS011;37248;59.350;18.050;2023-01-01T03:36:03;2.38;;;1.33;;
51184;SDS011;37248;59.350;18.050;2023-01-01T03:38:36;2.17;;;1.15;;
51184;SDS011;37248;59.350;18.050;2023-01-01T03:41:22;2.38;;;1.38;;
51184;SDS011;37248;59.350;18.050;2023-01-01T03:43:55;3.60;;;1.70;;
51184;SDS011;37248;59.350;18.050;2023-01-01T03:46:23;3.30;;;1.20;;
51184;SDS011;37248;59.350;18.050;2023-01-01T03:48:50;2.95;;;1.35;;
51184;SDS011;37248;59.350;18.050;2023-01-01T03:53:49;2.90;;;1.40;;
51184;SDS011;37248;59.350;18.050;2023-01-01T03:56:18;2.10;;;1.27;;
51184;SDS011;37248;59.350;18.050;2023-01-01T03:58:48;2.60;;;1.20;;
51184;SDS011;37248;59.350;18.050;2023-01-01T04:01:23;2.83;;;1.40;;
51184;SDS011;37248;59.350;18.050;2023-01-01T04:03:50;2.85;;;1.40;;
51184;SDS011;37248;59.350;18.050;2023-01-01T04:06:16;3.07;;;1.20;;
51184;SDS011;37248;59.350;18.050;2023-01-01T04:08:41;2.93;;;1.37;;
51184;SDS011;37248;59.350;18.050;2023-01-01T04:11:09;2.50;;;1.30;;
51184;SDS011;37248;59.350;18.050;2023-01-01T04:13:57;2.28;;;1.10;;
51184;SDS011;37248;59.350;18.050;2023-01-01T04:16:23;3.40;;;1.23;;
51184;SDS011;37248;59.350;18.050;2023-01-01T04:18:48;3.08;;;1.55;;
51184;SDS011;37248;59.350;18.050;2023-01-01T04:21:13;2.33;;;1.20;;
51184;SDS011;37248;59.350;18.050;2023-01-01T04:23:38;1.95;;;1.30;;
51184;SDS011;37248;59.350;18.050;2023-01-01T04:26:04;2.20;;;1.10;;
51184;SDS011;37248;59.350;18.050;2023-01-01T04:28:29;2.42;;;1.35;;
51184;SDS011;37248;59.350;18.050;2023-01-01T04:30:54;2.93;;;1.23;;
51184;SDS011;37248;59.350;18.050;2023-01-01T04:33:19;2.50;;;1.30;;
51184;SDS011;37248;59.350;18.050;2023-01-01T04:35:45;1.63;;;0.93;;
51184;SDS011;37248;59.350;18.050;2023-01-01T04:38:11;2.70;;;1.30;;
51184;SDS011;37248;59.350;18.050;2023-01-01T04:40:37;1.80;;;1.30;;
51184;SDS011;37248;59.350;18.050;2023-01-01T04:43:02;2.17;;;1.30;;
51184;SDS011;37248;59.350;18.050;2023-01-01T04:45:27;2.43;;;1.20;;
51184;SDS011;37248;59.350;18.050;2023-01-01T04:47:52;2.57;;;1.40;;
51184;SDS011;37248;59.350;18.050;2023-01-01T04:50:18;1.83;;;1.13;;
51184;SDS011;37248;59.350;18.050;2023-01-01T04:52:43;1.93;;;1.30;;
51184;SDS011;37248;59.350;18.050;2023-01-01T04:55:08;2.37;;;0.90;;
51184;SDS011;37248;59.350;18.050;2023-01-01T04:57:33;2.27;;;1.10;;
51184;SDS011;37248;59.350;18.050;2023-01-01T04:59:59;2.50;;;0.93;;
51184;SDS011;37248;59.350;18.050;2023-01-01T05:02:24;2.10;;;1.20;;
51184;SDS011;37248;59.350;18.050;2023-01-01T05:04:50;2.70;;;1.35;;
51184;SDS011;37248;59.350;18.050;2023-01-01T05:07:15;1.90;;;1.20;;
51184;SDS011;37248;59.350;18.050;2023-01-01T05:09:40;1.43;;;0.87;;
51184;SDS011;37248;59.350;18.050;2023-01-01T05:12:05;2.00;;;1.20;;
51184;SDS011;37248;59.350;18.050;2023-01-01T05:14:31;2.93;;;1.07;;
51184;SDS011;37248;59.350;18.050;2023-01-01T05:16:56;1.70;;;1.00;;
51184;SDS011;37248;59.350;18.050;2023-01-01T05:19:21;1.67;;;1.00;;
51184;SDS011;37248;59.350;18.050;2023-01-01T05:21:46;2.17;;;1.10;;
51184;SDS011;37248;59.350;18.050;2023-01-01T05:24:12;1.50;;;0.90;;
51184;SDS011;37248;59.350;18.050;2023-01-01T05:26:39;2.30;;;1.00;;
51184;SDS011;37248;59.350;18.050;2023-01-01T05:29:04;1.63;;;1.02;;
51184;SDS011;37248;59.350;18.050;2023-01-01T05:31:31;1.52;;;0.90;;
51184;SDS011;37248;59.350;18.050;2023-01-01T05:33:57;1.92;;;1.02;;
51184;SDS011;37248;59.350;18.050;2023-01-01T05:36:24;1.65;;;0.90;;
51184;SDS011;37248;59.350;18.050;2023-01-01T05:38:49;2.05;;;1.17;;
51184;SDS011;37248;59.350;18.050;2023-01-01T05:41:15;2.30;;;1.20;;
51184;SDS011;37248;59.350;18.050;2023-01-01T05:43:41;2.63;;;1.27;;
51184;SDS011;37248;59.350;18.050;2023-01-01T05:46:07;2.10;;;0.93;;
51184;SDS011;37248;59.350;18.050;2023-01-01T05:48:34;1.63;;;0.88;;
51184;SDS011;37248;59.350;18.050;2023-01-01T05:51:03;1.48;;;1.08;;
51184;SDS011;37248;59.350;18.050;2023-01-01T05:53:28;1.55;;;0.82;;
51184;SDS011;37248;59.350;18.050;2023-01-01T05:55:54;1.90;;;0.85;;
51184;SDS011;37248;59.350;18.050;2023-01-01T05:58:20;1.30;;;0.90;;
51184;SDS011;37248;59.350;18.050;2023-01-01T06:00:45;2.07;;;1.00;;
51184;SDS011;37248;59.350;18.050;2023-01-01T06:03:10;1.50;;;0.80;;
51184;SDS011;37248;59.350;18.050;2023-01-01T06:05:35;1.60;;;0.90;;
51184;SDS011;37248;59.350;18.050;2023-01-01T06:08:01;1.40;;;0.90;;
51184;SDS011;37248;59.350;18.050;2023-01-01T06:10:26;1.60;;;0.90;;
51184;SDS011;37248;59.350;18.050;2023-01-01T06:12:53;1.93;;;1.10;;
51184;SDS011;37248;59.350;18.050;2023-01-01T06:15:21;1.30;;;0.90;;
51184;SDS011;37248;59.350;18.050;2023-01-01T06:17:46;1.70;;;0.90;;
51184;SDS011;37248;59.350;18.050;2023-01-01T06:20:11;1.53;;;0.90;;
51184;SDS011;37248;59.350;18.050;2023-01-01T06:22:37;1.87;;;1.07;;
51184;SDS011;37248;59.350;18.050;2023-01-01T06:25:02;2.20;;;1.20;;
51184;SDS011;37248;59.350;18.050;2023-01-01T06:27:27;1.00;;;0.70;;
51184;SDS011;37248;59.350;18.050;2023-01-01T06:29:52;1.90;;;0.83;;
51184;SDS011;37248;59.350;18.050;2023-01-01T06:32:18;2.17;;;0.90;;
51184;SDS011;37248;59.350;18.050;2023-01-01T06:34:43;1.53;;;0.70;;
51184;SDS011;37248;59.350;18.050;2023-01-01T06:37:08;1.90;;;0.70;;
51184;SDS011;37248;59.350;18.050;2023-01-01T06:39:33;1.60;;;0.87;;
51184;SDS011;37248;59.350;18.050;2023-01-01T06:41:59;1.33;;;0.90;;
51184;SDS011;37248;59.350;18.050;2023-01-01T06:44:24;2.30;;;0.93;;
51184;SDS011;37248;59.350;18.050;2023-01-01T06:46:49;2.40;;;1.00;;
51184;SDS011;37248;59.350;18.050;2023-01-01T06:49:14;1.40;;;0.80;;
51184;SDS011;37248;59.350;18.050;2023-01-01T06:51:40;1.27;;;0.67;;
51184;SDS011;37248;59.350;18.050;2023-01-01T06:54:06;2.22;;;1.00;;
51184;SDS011;37248;59.350;18.050;2023-01-01T06:56:32;1.40;;;0.70;;
51184;SDS011;37248;59.350;18.050;2023-01-01T06:58:57;1.77;;;0.97;;
51184;SDS011;37248;59.350;18.050;2023-01-01T07:01:24;1.63;;;0.95;;
51184;SDS011;37248;59.350;18.050;2023-01-01T07:03:51;1.33;;;0.77;;
51184;SDS011;37248;59.350;18.050;2023-01-01T07:06:16;1.98;;;0.88;;
51184;SDS011;37248;59.350;18.050;2023-01-01T07:08:41;1.57;;;0.87;;
51184;SDS011;37248;59.350;18.050;2023-01-01T07:11:07;1.40;;;0.80;;
51184;SDS011;37248;59.350;18.050;2023-01-01T07:13:32;1.47;;;0.80;;
51184;SDS011;37248;59.350;18.050;2023-01-01T07:15:57;1.50;;;0.73;;
51184;SDS011;37248;59.350;18.050;2023-01-01T07:18:23;1.63;;;0.90;;
51184;SDS011;37248;59.350;18.050;2023-01-01T07:20:52;1.43;;;0.80;;
51184;SDS011;37248;59.350;18.050;2023-01-01T07:23:17;1.65;;;0.80;;
51184;SDS011;37248;59.350;18.050;2023-01-01T07:25:43;1.05;;;0.70;;
51184;SDS011;37248;59.350;18.050;2023-01-01T07:28:08;1.30;;;0.80;;
51184;SDS011;37248;59.350;18.050;2023-01-01T07:30:34;0.80;;;0.60;;
51184;SDS011;37248;59.350;18.050;2023-01-01T07:32:59;1.73;;;0.80;;
51184;SDS011;37248;59.350;18.050;2023-01-01T07:35:24;1.00;;;0.60;;
51184;SDS011;37248;59.350;18.050;2023-01-01T07:37:49;1.60;;;0.80;;
51184;SDS011;37248;59.350;18.050;2023-01-01T07:40:15;1.37;;;0.77;;
51184;SDS011;37248;59.350;18.050;2023-01-01T07:42:40;1.53;;;0.80;;
51184;SDS011;37248;59.350;18.050;2023-01-01T07:45:05;1.30;;;0.73;;
51184;SDS011;37248;59.350;18.050;2023-01-01T07:47:31;1.83;;;0.70;;
51184;SDS011;37248;59.350;18.050;2023-01-01T07:49:57;2.22;;;0.95;;
51184;SDS011;37248;59.350;18.050;2023-01-01T07:52:22;1.33;;;0.80;;
51184;SDS011;37248;59.350;18.050;2023-01-01T07:54:47;1.17;;;0.67;;
51184;SDS011;37248;59.350;18.050;2023-01-01T07:57:12;0.95;;;0.70;;
51184;SDS011;37248;59.350;18.050;2023-01-01T07:59:38;1.10;;;0.70;;
51184;SDS011;37248;59.350;18.050;2023-01-01T08:02:03;1.20;;;0.60;;
51184;SDS011;37248;59.350;18.050;2023-01-01T08:04:28;1.33;;;0.77;;
51184;SDS011;37248;59.350;18.050;2023-01-01T08:06:54;1.30;;;0.70;;
51184;SDS011;37248;59.350;18.050;2023-01-01T08:09:19;1.10;;;0.70;;
51184;SDS011;37248;59.350;18.050;2023-01-01T08:11:45;1.17;;;0.70;;
51184;SDS011;37248;59.350;18.050;2023-01-01T08:14:10;1.10;;;0.70;;
51184;SDS011;37248;59.350;18.050;2023-01-01T08:16:35;1.40;;;0.70;;
51184;SDS011;37248;59.350;18.050;2023-01-01T08:19:01;1.37;;;0.80;;
51184;SDS011;37248;59.350;18.050;2023-01-01T08:21:26;1.40;;;0.70;;
51184;SDS011;37248;59.350;18.050;2023-01-01T08:23:51;1.60;;;0.90;;
51184;SDS011;37248;59.350;18.050;2023-01-01T08:26:17;1.63;;;0.70;;
51184;SDS011;37248;59.350;18.050;2023-01-01T08:28:42;2.00;;;0.80;;
51184;SDS011;37248;59.350;18.050;2023-01-01T08:31:08;1.60;;;0.80;;
51184;SDS011;37248;59.350;18.050;2023-01-01T08:33:33;1.25;;;0.70;;
51184;SDS011;37248;59.350;18.050;2023-01-01T08:35:58;1.60;;;0.80;;
51184;SDS011;37248;59.350;18.050;2023-01-01T08:38:24;1.98;;;0.90;;
51184;SDS011;37248;59.350;18.050;2023-01-01T08:40:49;1.48;;;0.70;;
51184;SDS011;37248;59.350;18.050;2023-01-01T08:43:14;1.03;;;0.67;;
51184;SDS011;37248;59.350;18.050;2023-01-01T08:45:40;1.27;;;0.80;;
51184;SDS011;37248;59.350;18.050;2023-01-01T08:48:05;1.10;;;0.67;;
51184;SDS011;37248;59.350;18.050;2023-01-01T08:50:30;1.60;;;0.82;;
51184;SDS011;37248;59.350;18.050;2023-01-01T08:52:59;1.60;;;0.77;;
51184;SDS011;37248;59.350;18.050;2023-01-01T08:55:24;1.38;;;0.80;;
51184;SDS011;37248;59.350;18.050;2023-01-01T08:57:49;1.30;;;0.65;;
51184;SDS011;37248;59.350;18.050;2023-01-01T09:00:15;0.90;;;0.60;;
51184;SDS011;37248;59.350;18.050;2023-01-01T09:02:41;1.77;;;0.83;;
51184;SDS011;37248;59.350;18.050;2023-01-01T09:05:06;1.60;;;0.70;;
51184;SDS011;37248;59.350;18.050;2023-01-01T09:07:32;1.48;;;0.70;;
51184;SDS011;37248;59.350;18.050;2023-01-01T09:09:57;1.80;;;0.70;;
51184;SDS011;37248;59.350;18.050;2023-01-01T09:12:22;1.03;;;0.70;;
51184;SDS011;37248;59.350;18.050;2023-01-01T09:14:47;1.83;;;0.77;;
51184;SDS011;37248;59.350;18.050;2023-01-01T09:17:13;1.07;;;0.70;;
51184;SDS011;37248;59.350;18.050;2023-01-01T09:19:38;1.75;;;0.90;;
51184;SDS011;37248;59.350;18.050;2023-01-01T09:22:07;1.70;;;0.60;;
51184;SDS011;37248;59.350;18.050;2023-01-01T09:24:32;1.40;;;0.70;;
51184;SDS011;37248;59.350;18.050;2023-01-01T09:26:57;1.03;;;0.60;;
51184;SDS011;37248;59.350;18.050;2023-01-01T09:29:22;1.03;;;0.60;;
51184;SDS011;37248;59.350;18.050;2023-01-01T09:31:48;0.90;;;0.60;;
51184;SDS011;37248;59.350;18.050;2023-01-01T09:34:13;1.30;;;0.70;;
51184;SDS011;37248;59.350;18.050;2023-01-01T09:36:38;1.20;;;0.67;;
51184;SDS011;37248;59.350;18.050;2023-01-01T09:39:04;2.27;;;0.90;;
51184;SDS011;37248;59.350;18.050;2023-01-01T09:46:48;1.20;;;0.67;;
51184;SDS011;37248;59.350;18.050;2023-01-01T09:49:17;1.40;;;0.80;;
51184;SDS011;37248;59.350;18.050;2023-01-01T09:51:47;1.08;;;0.70;;
51184;SDS011;37248;59.350;18.050;2023-01-01T09:54:24;1.52;;;0.75;;
51184;SDS011;37248;59.350;18.050;2023-01-01T09:56:52;1.52;;;0.70;;
51184;SDS011;37248;59.350;18.050;2023-01-01T09:59:18;1.20;;;0.60;;
51184;SDS011;37248;59.350;18.050;2023-01-01T10:01:55;1.40;;;0.70;;
51184;SDS011;37248;59.350;18.050;2023-01-01T10:09:22;1.70;;;0.60;;
51184;SDS011;37248;59.350;18.050;2023-01-01T10:16:48;1.20;;;0.70;;
51184;SDS011;37248;59.350;18.050;2023-01-01T10:21:45;1.17;;;0.70;;
51184;SDS011;37248;59.350;18.050;2023-01-01T10:26:55;1.20;;;0.70;;
51184;SDS011;37248;59.350;18.050;2023-01-01T10:29:22;1.40;;;0.60;;
51184;SDS011;37248;59.350;18.050;2023-01-01T10:31:51;1.27;;;0.80;;
51184;SDS011;37248;59.350;18.050;2023-01-01T10:34:26;1.10;;;0.55;;
51184;SDS011;37248;59.350;18.050;2023-01-01T10:36:55;1.20;;;0.70;;
51184;SDS011;37248;59.350;18.050;2023-01-01T10:39:21;0.93;;;0.60;;
51184;SDS011;37248;59.350;18.050;2023-01-01T10:41:47;1.50;;;0.70;;
51184;SDS011;37248;59.350;18.050;2023-01-01T10:44:14;1.50;;;0.70;;
51184;SDS011;37248;59.350;18.050;2023-01-01T10:46:41;1.05;;;0.73;;
51184;SDS011;37248;59.350;18.050;2023-01-01T10:49:10;0.80;;;0.60;;
51184;SDS011;37248;59.350;18.050;2023-01-01T10:51:45;1.03;;;0.60;;
51184;SDS011;37248;59.350;18.050;2023-01-01T10:54:22;1.00;;;0.50;;
51184;SDS011;37248;59.350;18.050;2023-01-01T10:56:48;1.10;;;0.60;;
51184;SDS011;37248;59.350;18.050;2023-01-01T11:04:39;1.40;;;0.70;;
51184;SDS011;37248;59.350;18.050;2023-01-01T11:07:05;1.10;;;0.67;;
51184;SDS011;37248;59.350;18.050;2023-01-01T11:09:30;1.30;;;0.80;;
51184;SDS011;37248;59.350;18.050;2023-01-01T11:11:59;1.90;;;0.60;;
51184;SDS011;37248;59.350;18.050;2023-01-01T11:14:29;1.47;;;0.50;;
51184;SDS011;37248;59.350;18.050;2023-01-01T11:16:56;1.00;;;0.50;;
51184;SDS011;37248;59.350;18.050;2023-01-01T11:19:29;1.08;;;0.60;;
51184;SDS011;37248;59.350;18.050;2023-01-01T11:21:56;1.35;;;0.60;;
51184;SDS011;37248;59.350;18.050;2023-01-01T11:24:22;0.95;;;0.60;;
51184;SDS011;37248;59.350;18.050;2023-01-01T11:26:48;1.30;;;0.68;;
51184;SDS011;37248;59.350;18.050;2023-01-01T11:29:27;1.37;;;0.80;;
51184;SDS011;37248;59.350;18.050;2023-01-01T11:31:52;1.00;;;0.60;;
51184;SDS011;37248;59.350;18.050;2023-01-01T11:34:37;1.20;;;0.60;;
51184;SDS011;37248;59.350;18.050;2023-01-01T11:39:34;1.50;;;0.70;;
51184;SDS011;37248;59.350;18.050;2023-01-01T11:42:01;0.70;;;0.40;;
51184;SDS011;37248;59.350;18.050;2023-01-01T11:44:37;1.50;;;0.70;;
51184;SDS011;37248;59.350;18.050;2023-01-01T11:47:03;1.08;;;0.60;;
51184;SDS011;37248;59.350;18.050;2023-01-01T11:49:29;1.30;;;0.60;;
51184;SDS011;37248;59.350;18.050;2023-01-01T11:51:56;1.10;;;0.60;;
51184;SDS011;37248;59.350;18.050;2023-01-01T11:56:53;1.13;;;0.50;;
51184;SDS011;37248;59.350;18.050;2023-01-01T11:59:22;0.70;;;0.50;;
51184;SDS011;37248;59.350;18.050;2023-01-01T12:01:50;1.07;;;0.60;;
51184;SDS011;37248;59.350;18.050;2023-01-01T12:04:18;0.93;;;0.52;;
51184;SDS011;37248;59.350;18.050;2023-01-01T12:06:47;1.43;;;0.73;;
51184;SDS011;37248;59.350;18.050;2023-01-01T12:11:47;1.40;;;0.57;;
51184;SDS011;37248;59.350;18.050;2023-01-01T12:17:00;0.90;;;0.52;;
51184;SDS011;37248;59.350;18.050;2023-01-01T12:19:34;1.33;;;0.60;;
51184;SDS011;37248;59.350;18.050;2023-01-01T12:22:02;1.27;;;0.55;;
51184;SDS011;37248;59.350;18.050;2023-01-01T12:24:36;0.95;;;0.50;;
51184;SDS011;37248;59.350;18.050;2023-01-01T12:27:27;1.00;;;0.60;;
51184;SDS011;37248;59.350;18.050;2023-01-01T12:32:32;1.27;;;0.60;;
51184;SDS011;37248;59.350;18.050;2023-01-01T12:58:37;1.10;;;0.60;;
51184;SDS011;37248;59.350;18.050;2023-01-01T13:03:41;1.15;;;0.60;;
51184;SDS011;37248;59.350;18.050;2023-01-01T13:06:10;0.77;;;0.50;;
51184;SDS011;37248;59.350;18.050;2023-01-01T13:08:37;0.85;;;0.50;;
51184;SDS011;37248;59.350;18.050;2023-01-01T13:11:03;1.00;;;0.55;;
51184;SDS011;37248;59.350;18.050;2023-01-01T13:13:30;1.00;;;0.50;;
51184;SDS011;37248;59.350;18.050;2023-01-01T13:15:55;1.03;;;0.40;;
51184;SDS011;37248;59.350;18.050;2023-01-01T13:18:22;1.10;;;0.70;;
51184;SDS011;37248;59.350;18.050;2023-01-01T13:39:57;0.77;;;0.50;;
51184;SDS011;37248;59.350;18.050;2023-01-01T13:45:23;1.00;;;0.40;;
51184;SDS011;37248;59.350;18.050;2023-01-01T13:48:00;0.65;;;0.30;;
51184;SDS011;37248;59.350;18.050;2023-01-01T14:00:59;0.93;;;0.50;;
51184;SDS011;37248;59.350;18.050;2023-01-01T14:03:29;0.70;;;0.40;;
51184;SDS011;37248;59.350;18.050;2023-01-01T14:05:58;0.90;;;0.60;;
51184;SDS011;37248;59.350;18.050;2023-01-01T14:10:57;0.88;;;0.40;;
51184;SDS011;37248;59.350;18.050;2023-01-01T14:13:29;1.08;;;0.40;;
51184;SDS011;37248;59.350;18.050;2023-01-01T14:16:00;0.80;;;0.30;;
51184;SDS011;37248;59.350;18.050;2023-01-01T14:18:33;0.70;;;0.40;;
51184;SDS011;37248;59.350;18.050;2023-01-01T14:21:00;0.90;;;0.40;;
51184;SDS011;37248;59.350;18.050;2023-01-01T14:23:29;0.60;;;0.30;;
51184;SDS011;37248;59.350;18.050;2023-01-01T14:25:55;1.80;;;0.40;;
51184;SDS011;37248;59.350;18.050;2023-01-01T14:28:30;0.77;;;0.40;;
51184;SDS011;37248;59.350;18.050;2023-01-01T14:30:56;0.95;;;0.43;;
51184;SDS011;37248;59.350;18.050;2023-01-01T14:33:28;0.82;;;0.40;;
51184;SDS011;37248;59.350;18.050;2023-01-01T14:35:55;0.95;;;0.38;;
51184;SDS011;37248;59.350;18.050;2023-01-01T14:38:24;0.73;;;0.38;;
51184;SDS011;37248;59.350;18.050;2023-01-01T14:41:04;1.00;;;0.40;;
51184;SDS011;37248;59.350;18.050;2023-01-01T14:43:31;0.52;;;0.30;;
51184;SDS011;37248;59.350;18.050;2023-01-01T14:45:56;0.70;;;0.40;;
51184;SDS011;37248;59.350;18.050;2023-01-01T14:48:21;0.80;;;0.50;;
51184;SDS011;37248;59.350;18.050;2023-01-01T14:50:48;0.82;;;0.40;;
51184;SDS011;37248;59.350;18.050;2023-01-01T14:53:15;0.50;;;0.30;;
51184;SDS011;37248;59.350;18.050;2023-01-01T14:55:46;1.20;;;0.40;;
51184;SDS011;37248;59.350;18.050;2023-01-01T14:58:30;1.00;;;0.40;;
51184;SDS011;37248;59.350;18.050;2023-01-01T15:04:01;0.60;;;0.40;;
51184;SDS011;37248;59.350;18.050;2023-01-01T15:06:26;0.50;;;0.30;;
51184;SDS011;37248;59.350;18.050;2023-01-01T15:08:52;0.95;;;0.40;;
51184;SDS011;37248;59.350;18.050;2023-01-01T15:11:18;0.50;;;0.30;;
51184;SDS011;37248;59.350;18.050;2023-01-01T15:13:59;1.20;;;0.50;;
51184;SDS011;37248;59.350;18.050;2023-01-01T15:16:25;0.68;;;0.40;;
51184;SDS011;37248;59.350;18.050;2023-01-01T15:18:51;0.68;;;0.40;;
51184;SDS011;37248;59.350;18.050;2023-01-01T15:26:23;1.10;;;0.50;;
51184;SDS011;37248;59.350;18.050;2023-01-01T15:28:49;0.75;;;0.32;;
51184;SDS011;37248;59.350;18.050;2023-01-01T15:31:15;1.10;;;0.40;;
51184;SDS011;37248;59.350;18.050;2023-01-01T15:33:44;0.53;;;0.30;;
51184;SDS011;37248;59.350;18.050;2023-01-01T15:36:10;0.68;;;0.40;;
51184;SDS011;37248;59.350;18.050;2023-01-01T15:38:35;0.95;;;0.50;;
51184;SDS011;37248;59.350;18.050;2023-01-01T15:41:22;0.80;;;0.40;;
51184;SDS011;37248;59.350;18.050;2023-01-01T15:43:47;0.80;;;0.40;;
51184;SDS011;37248;59.350;18.050;2023-01-01T15:46:21;0.80;;;0.40;;
51184;SDS011;37248;59.350;18.050;2023-01-01T15:48:52;0.50;;;0.30;;
51184;SDS011;37248;59.350;18.050;2023-01-01T15:51:18;1.00;;;0.40;;
51184;SDS011;37248;59.350;18.050;2023-01-01T15:53:45;1.38;;;0.60;;
51184;SDS011;37248;59.350;18.050;2023-01-01T15:56:12;0.73;;;0.37;;
51184;SDS011;37248;59.350;18.050;2023-01-01T15:58:42;0.65;;;0.30;;
51184;SDS011;37248;59.350;18.050;2023-01-01T16:01:11;1.00;;;0.60;;
51184;SDS011;37248;59.350;18.050;2023-01-01T16:03:37;0.60;;;0.40;;
51184;SDS011;37248;59.350;18.050;2023-01-01T16:06:03;0.85;;;0.40;;
51184;SDS011;37248;59.350;18.050;2023-01-01T16:08:29;0.70;;;0.40;;
51184;SDS011;37248;59.350;18.050;2023-01-01T16:10:54;0.60;;;0.40;;
51184;SDS011;37248;59.350;18.050;2023-01-01T16:13:19;0.70;;;0.40;;
51184;SDS011;37248;59.350;18.050;2023-01-01T16:15:48;0.97;;;0.50;;
51184;SDS011;37248;59.350;18.050;2023-01-01T16:18:15;0.82;;;0.40;;
51184;SDS011;37248;59.350;18.050;2023-01-01T16:20:41;0.52;;;0.30;;
51184;SDS011;37248;59.350;18.050;2023-01-01T16:23:07;0.63;;;0.40;;
51184;SDS011;37248;59.350;18.050;2023-01-01T16:25:33;1.13;;;0.55;;
51184;SDS011;37248;59.350;18.050;2023-01-01T16:27:58;1.30;;;0.50;;
51184;SDS011;37248;59.350;18.050;2023-01-01T16:30:24;0.87;;;0.50;;
51184;SDS011;37248;59.350;18.050;2023-01-01T16:32:49;1.05;;;0.50;;
51184;SDS011;37248;59.350;18.050;2023-01-01T16:35:15;0.90;;;0.50;;
51184;SDS011;37248;59.350;18.050;2023-01-01T16:37:40;0.80;;;0.47;;
51184;SDS011;37248;59.350;18.050;2023-01-01T16:40:06;1.50;;;0.50;;
51184;SDS011;37248;59.350;18.050;2023-01-01T16:42:31;0.60;;;0.40;;
51184;SDS011;37248;59.350;18.050;2023-01-01T16:44:56;1.00;;;0.47;;
51184;SDS011;37248;59.350;18.050;2023-01-01T16:47:22;0.80;;;0.50;;
51184;SDS011;37248;59.350;18.050;2023-01-01T16:49:47;1.07;;;0.40;;